Vergennes, Vermont
Current Conditions -  °F | °C
As of 8:35 AM on Thursday 23 Oct 2014 (Local Time) from K6B0 Reporting Station
Overcast Overcast  
Wind Chill: 35°   Ceiling: 1400
Heat Index: 43°   Visibility: 10mi
Dew Point: 40°   Wind: 15mph
Humidity: 89%   Direction: 350°N
Pressure: 29.92"   Gusts: 22mph
Location:  44.17°N, 73.25°W
Report Text: K6B0 231235Z AUTO 35013G19KT 10SM OVC014 06/04 A2992 RMK AO2 LTG DSNT SE T00600043
Loading
Personal Weather Stations






























Interactive Weather Map
Tropical Storm Tracking
New forecast layout! Learn more

10-Day Weather Forecast

Advertisements
Track Severe Weather on mobile